Main page
METAR-TAF:

METAR-TAF

Airports :

Deauville – Normandie Airport

Deauville, France

latitude: 49-21-55N, longitude: 000-09-16E, elevation: 146 m

Current weather observation

The report was made 39 minutes ago, at 00:00 UTC
Wind 3 kt from variable directions
Temperature 13°C
Humidity 94%
Pressure 1020 hPa
Visibility: 3700 m
Overcast at a height of 400 ft
mist

METAR: LFRG 240000Z AUTO VRB03KT 3700 BR OVC004 13/12 Q1020

Time: 02:39 (00:39 UTC)

Forecast

The report was made 8 hours and 0 minutes ago, at 16:39 UTC
Forecast valid from 23 at 16 UTC to 23 at 24 UTC
Wind 10 kt from the Northeast
Visibility: 5000 m
Broken clouds at a height of 800 ft
mist
Probability 30% :
Temporary
from 23 at 20 UTC to 23 at 24 UTC
Visibility: 4000 m
Broken clouds at a height of 400 ft
mist

TAF: LFRG 231639Z 2316/2324 05010KT 5000 BR BKN008 PROB30 TEMPO 2320/2324 4000 BR BKN004

Weather observations and forecasts of more than 4000 airports (METAR and TAF reports).

The available stations are represented by yellow and red dots on the map.

Hover mouse over dot to see the name of the station.

Then click to see weather observations and forecasts.

To change the map : click on the green buttons with a black cross to zoom in, on the green button with a dash to zoom out, or on the green arrows for adjacent maps.


METAR-TAF: